Time;durP1;ratioP1;P1;durP2;ratioP2;P2;SDS_P1;SDS_P2;PMS_P1;PMS_P2;Temp;Humidity;BMP_temperature;BMP_pressure;BME280_temperature;BME280_humidity;BME280_pressure;Samples;Min_cycle;Max_cycle;Signal;HPM_P1;HPM_P2
2022/02/27 00:01:23;;;;;;;;;;;;;;;14.78;58.75;101988.25;5033717;28;1376;-33
2022/02/27 00:03:49;;;;;;;;;;;;;;;14.78;58.69;101964.31;5033457;28;1321;-33
2022/02/27 00:06:17;;;;;;;;;;;;;;;14.83;60.11;101972.03;5033471;28;1127;-33
2022/02/27 00:08:43;;;;;;;;;;;;;;;14.78;58.94;101952.75;5033638;28;1089;-33
2022/02/27 00:11:10;;;;;;;;;;;;;;;14.77;59.11;101959.03;5033714;28;1056;-33
2022/02/27 00:13:36;;;;;;;;;;;;;;;14.78;58.75;101963.41;5034071;28;1902;-33
2022/02/27 00:16:03;;;;;;;;;;;;;;;14.76;59.01;101960.81;5033656;28;998;-33
2022/02/27 00:18:31;;;;;;;;;;;;;;;14.78;59.32;101971.41;5033625;28;1087;-33
2022/02/27 00:20:57;;;;;;;;;;;;;;;14.77;58.82;101967.03;5033253;28;1068;-33
2022/02/27 00:23:24;;;;;;;;;;;;;;;14.76;59.19;101962.63;5033599;28;1043;-33
2022/02/27 00:25:50;;;;;;;;;;;;;;;14.76;59.28;101963.47;5033566;28;1082;-33
2022/02/27 00:28:16;;;;;;;;;;;;;;;14.76;59.30;101959.97;5033540;28;1016;-33
2022/02/27 00:30:43;;;;;;;;;;;;;;;14.75;60.07;101966.25;5033531;28;1081;-34
2022/02/27 00:33:09;;;;;;;;;;;;;;;14.76;59.75;101946.66;5033555;28;1906;-33
2022/02/27 00:35:39;;;;;;;;;;;;;;;14.75;58.44;101960.94;5033181;28;1084;-34
2022/02/27 00:38:06;;;;;;;;;;;;;;;14.73;60.10;101942.34;5033507;28;994;-33
2022/02/27 00:40:32;;;;;;;;;;;;;;;14.77;59.05;101965.22;5033135;28;1190;-33
2022/02/27 00:42:59;;;;;;;;;;;;;;;14.76;59.25;101941.34;5033370;28;1063;-33
2022/02/27 00:45:25;;;;;;;;;;;;;;;14.76;58.87;101960.81;5033386;28;1085;-33
2022/02/27 00:47:52;;;;;;;;;;;;;;;14.77;58.97;101948.41;5033076;28;1147;-33
2022/02/27 00:50:18;;;;;;;;;;;;;;;14.75;58.94;101961.78;5033297;28;1150;-33
2022/02/27 00:52:46;;;;;;;;;;;;;;;14.74;59.74;101953.88;5033677;28;1084;-33
2022/02/27 00:55:12;;;;;;;;;;;;;;;14.75;58.82;101953.78;5033480;28;1914;-34
2022/02/27 00:57:39;;;;;;;;;;;;;;;14.74;58.83;101948.53;5033515;28;1005;-33
2022/02/27 01:00:06;;;;;;;;;;;;;;;14.73;59.50;101931.72;5033261;28;1080;-33
2022/02/27 01:02:33;;;;;;;;;;;;;;;14.77;59.29;101946.59;5033440;28;1400;-34
2022/02/27 01:04:59;;;;;;;;;;;;;;;14.74;59.45;101937.88;5037002;28;1015;-33
2022/02/27 01:07:26;;;;;;;;;;;;;;;14.74;58.71;101935.22;5036868;28;1077;-33
2022/02/27 01:09:54;;;;;;;;;;;;;;;14.73;59.11;101942.34;5036911;28;1110;-33
2022/02/27 01:12:20;;;;;;;;;;;;;;;14.75;58.72;101950.28;5036858;28;1002;-33
2022/02/27 01:14:47;;;;;;;;;;;;;;;14.74;59.26;101940.53;5036447;28;1910;-34
2022/02/27 01:17:14;;;;;;;;;;;;;;;14.69;59.87;101931.00;5036393;28;1095;-33
2022/02/27 01:19:40;;;;;;;;;;;;;;;14.73;58.71;101936.19;5036657;28;1072;-34
2022/02/27 01:22:07;;;;;;;;;;;;;;;14.73;58.47;101936.19;5036673;28;1065;-33
2022/02/27 01:24:33;;;;;;;;;;;;;;;14.73;59.33;101953.00;5036440;28;1033;-33
2022/02/27 01:27:01;;;;;;;;;;;;;;;14.70;58.48;101940.72;5036627;28;1019;-33
2022/02/27 01:29:27;;;;;;;;;;;;;;;14.69;58.89;101941.66;5036573;28;987;-33
2022/02/27 01:31:54;;;;;;;;;;;;;;;14.71;58.56;101937.09;5036349;28;1076;-34
2022/02/27 01:34:20;;;;;;;;;;;;;;;14.70;58.87;101938.06;5036633;28;1902;-33
2022/02/27 01:36:47;;;;;;;;;;;;;;;14.70;59.87;101945.16;5036391;28;1016;-33
2022/02/27 01:39:13;;;;;;;;;;;;;;;14.70;59.10;101948.72;5036072;28;1080;-33
2022/02/27 01:41:40;;;;;;;;;;;;;;;14.71;59.25;101950.41;5036549;28;1002;-33
2022/02/27 01:44:07;;;;;;;;;;;;;;;14.72;58.77;101951.28;5036244;28;1053;-33
2022/02/27 01:46:35;;;;;;;;;;;;;;;14.69;59.67;101933.66;5036574;28;1039;-34
2022/02/27 01:49:01;;;;;;;;;;;;;;;14.70;58.57;101946.06;5036211;28;1069;-33
2022/02/27 01:51:28;;;;;;;;;;;;;;;14.67;58.70;101935.53;5036386;28;1077;-33
2022/02/27 01:53:54;;;;;;;;;;;;;;;14.70;58.67;101962.03;5036022;28;1977;-33
2022/02/27 01:56:22;;;;;;;;;;;;;;;14.70;58.86;101963.81;5035859;28;1166;-33
2022/02/27 01:58:48;;;;;;;;;;;;;;;14.68;59.15;101961.25;5035690;28;1088;-33
2022/02/27 02:01:16;;;;;;;;;;;;;;;14.68;59.64;101958.59;5035571;28;1498;-34
2022/02/27 02:03:42;;;;;;;;;;;;;;;14.67;59.03;101962.16;5035697;28;1137;-33
2022/02/27 02:06:09;;;;;;;;;;;;;;;14.69;60.12;101957.63;5035952;28;1043;-33
2022/02/27 02:08:35;;;;;;;;;;;;;;;14.66;58.50;101957.81;5035761;28;1082;-33
2022/02/27 02:11:02;;;;;;;;;;;;;;;14.66;58.33;101952.47;5035808;28;1006;-33
2022/02/27 02:13:28;;;;;;;;;;;;;;;14.68;59.24;101955.03;5034921;28;1127;-33
2022/02/27 02:15:58;;;;;;;;;;;;;;;14.66;59.18;101943.59;5035588;28;1965;-33
2022/02/27 02:18:25;;;;;;;;;;;;;;;14.68;58.33;101961.25;5035686;28;1032;-34
2022/02/27 02:20:53;;;;;;;;;;;;;;;14.66;58.59;101949.81;5035530;28;1064;-33
2022/02/27 02:23:20;;;;;;;;;;;;;;;14.66;58.79;101920.53;5035554;28;1087;-33
2022/02/27 02:25:46;;;;;;;;;;;;;;;14.68;58.45;101939.94;5035492;28;1060;-33
2022/02/27 02:28:12;;;;;;;;;;;;;;;14.67;58.35;101932.03;5035450;28;1060;-33
2022/02/27 02:30:39;;;;;;;;;;;;;;;14.67;58.90;101927.56;5035330;28;1024;-33
2022/02/27 02:33:05;;;;;;;;;;;;;;;14.68;58.55;101912.44;5035219;28;1092;-33
2022/02/27 02:35:32;;;;;;;;;;;;;;;14.70;59.09;101938.06;5035244;28;1902;-33
2022/02/27 02:38:00;;;;;;;;;;;;;;;14.65;58.88;101905.47;5034943;28;1136;-33
2022/02/27 02:40:26;;;;;;;;;;;;;;;14.65;59.79;101913.47;5035818;28;1069;-33
2022/02/27 02:42:53;;;;;;;;;;;;;;;14.65;59.25;101904.63;5035181;28;1096;-33
2022/02/27 02:45:19;;;;;;;;;;;;;;;14.65;58.70;101908.13;5035087;28;1260;-33
2022/02/27 02:47:47;;;;;;;;;;;;;;;14.62;59.25;101904.75;5035121;28;1078;-33
2022/02/27 02:50:15;;;;;;;;;;;;;;;14.63;58.75;101893.19;5035370;28;2072;-33
2022/02/27 02:52:41;;;;;;;;;;;;;;;14.65;59.24;101907.28;5034983;28;1122;-33
2022/02/27 02:55:10;;;;;;;;;;;;;;;14.65;59.28;101893.97;5035279;28;1981;-33
2022/02/27 02:57:37;;;;;;;;;;;;;;;14.63;58.81;101904.69;5034793;28;1016;-33
2022/02/27 03:02:46;;;;;;;;;;;;;;;14.64;59.26;101901.09;5041805;23;1508;-33
2022/02/27 03:05:13;;;;;;;;;;;;;;;14.65;59.16;101902.81;5014384;28;1083;-33
2022/02/27 03:07:40;;;;;;;;;;;;;;;14.64;58.46;101898.44;5014980;28;1147;-33
2022/02/27 03:10:07;;;;;;;;;;;;;;;14.63;58.78;101887.88;5014672;28;1099;-33
2022/02/27 03:12:35;;;;;;;;;;;;;;;14.63;58.25;101910.03;5015009;28;1086;-33
2022/02/27 03:15:02;;;;;;;;;;;;;;;14.62;59.78;101900.31;5014851;28;1909;-33
2022/02/27 03:17:28;;;;;;;;;;;;;;;14.63;59.03;101901.19;5014825;28;1183;-33
2022/02/27 03:19:55;;;;;;;;;;;;;;;14.61;58.42;101901.25;5014503;28;1147;-33
2022/02/27 03:22:21;;;;;;;;;;;;;;;14.61;59.10;101903.06;5014536;28;1092;-33
2022/02/27 03:24:48;;;;;;;;;;;;;;;14.60;58.48;101894.19;5014106;28;1532;-33
2022/02/27 03:27:14;;;;;;;;;;;;;;;14.62;59.16;101903.00;5014235;28;1204;-33
2022/02/27 03:29:42;;;;;;;;;;;;;;;14.60;59.04;101890.69;5014651;28;1019;-33
2022/02/27 03:32:09;;;;;;;;;;;;;;;14.60;58.59;101898.66;5013423;28;1007;-33
2022/02/27 03:34:35;;;;;;;;;;;;;;;14.59;58.87;101887.16;5014431;28;1902;-33
2022/02/27 03:37:02;;;;;;;;;;;;;;;14.57;58.60;101902.34;5014551;28;1144;-33
2022/02/27 03:39:28;;;;;;;;;;;;;;;14.58;58.65;101898.72;5014509;28;1078;-33
2022/02/27 03:41:55;;;;;;;;;;;;;;;14.59;59.18;101889.81;5014545;28;1004;-33
2022/02/27 03:44:21;;;;;;;;;;;;;;;14.62;58.75;101912.75;5014837;28;1034;-33
2022/02/27 03:46:49;;;;;;;;;;;;;;;14.60;58.64;101910.16;5014423;28;1066;-33
2022/02/27 03:49:15;;;;;;;;;;;;;;;14.62;58.57;101904.75;5013872;28;1286;-33
2022/02/27 03:51:42;;;;;;;;;;;;;;;14.60;58.45;101904.84;5013808;28;1075;-33
2022/02/27 03:54:08;;;;;;;;;;;;;;;14.63;58.96;101904.69;5013614;28;1906;-33
2022/02/27 03:56:35;;;;;;;;;;;;;;;14.61;59.21;101885.28;5014067;28;1235;-33
2022/02/27 03:59:01;;;;;;;;;;;;;;;14.61;58.21;101879.97;5014011;28;1032;-33
2022/02/27 04:01:28;;;;;;;;;;;;;;;14.57;59.47;101861.56;5013710;28;1668;-33
2022/02/27 04:03:55;;;;;;;;;;;;;;;14.60;59.58;101872.03;5013507;28;1084;-33
2022/02/27 04:06:22;;;;;;;;;;;;;;;14.59;58.52;101865.88;5014015;28;1085;-33
2022/02/27 04:08:48;;;;;;;;;;;;;;;14.62;58.77;101860.41;5013779;28;1135;-33
2022/02/27 04:11:15;;;;;;;;;;;;;;;14.60;58.72;101856.91;5014071;28;991;-33
2022/02/27 04:13:41;;;;;;;;;;;;;;;14.59;58.73;101855.22;5014062;28;966;-33
2022/02/27 04:16:08;;;;;;;;;;;;;;;14.61;58.46;101863.97;5013968;28;1906;-33
2022/02/27 04:18:34;;;;;;;;;;;;;;;14.56;58.49;101860.69;5013641;28;1097;-33
2022/02/27 04:21:02;;;;;;;;;;;;;;;14.56;58.41;101874.00;5013591;28;1100;-33
2022/02/27 04:23:28;;;;;;;;;;;;;;;14.56;58.50;101870.44;5014535;28;1055;-33
2022/02/27 04:25:55;;;;;;;;;;;;;;;14.56;59.23;101881.09;5013897;28;1011;-33
2022/02/27 04:28:21;;;;;;;;;;;;;;;14.54;58.80;101873.19;5013828;28;1082;-34
2022/02/27 04:30:48;;;;;;;;;;;;;;;14.59;58.58;101886.31;5013829;28;1060;-33
2022/02/27 04:33:14;;;;;;;;;;;;;;;14.60;59.26;101888.00;5013826;28;1074;-33
2022/02/27 04:35:41;;;;;;;;;;;;;;;14.56;59.00;101892.63;5013779;28;1903;-33
2022/02/27 04:38:08;;;;;;;;;;;;;;;14.57;59.08;101897.03;5016836;28;1196;-33
2022/02/27 04:40:35;;;;;;;;;;;;;;;14.58;59.16;101925.34;5017644;28;991;-33
2022/02/27 04:43:02;;;;;;;;;;;;;;;14.54;58.61;101931.75;5018350;28;1003;-33
2022/02/27 04:45:28;;;;;;;;;;;;;;;14.53;58.48;101940.69;5017339;28;1111;-33
2022/02/27 04:47:55;;;;;;;;;;;;;;;14.55;58.54;101944.13;5017960;28;2068;-33
2022/02/27 04:50:22;;;;;;;;;;;;;;;14.53;58.28;101951.31;5017263;28;1100;-33
2022/02/27 04:52:48;;;;;;;;;;;;;;;14.57;59.13;101962.72;5017207;28;1139;-33
2022/02/27 04:55:16;;;;;;;;;;;;;;;14.52;58.84;101961.13;5018018;28;1906;-31
2022/02/27 04:57:42;;;;;;;;;;;;;;;14.51;58.36;101948.75;5017371;28;951;-31
2022/02/27 05:00:10;;;;;;;;;;;;;;;14.53;59.32;101970.81;5017054;28;1131;-31
2022/02/27 05:02:36;;;;;;;;;;;;;;;14.52;59.26;101965.56;5017055;28;1356;-31
2022/02/27 05:05:03;;;;;;;;;;;;;;;14.53;58.82;101984.13;5016934;28;1087;-31
2022/02/27 05:07:30;;;;;;;;;;;;;;;14.52;58.76;102000.16;5017227;28;1076;-31
2022/02/27 05:09:56;;;;;;;;;;;;;;;14.49;58.54;102000.34;5017236;28;1082;-31
2022/02/27 05:12:24;;;;;;;;;;;;;;;14.52;58.71;102008.16;5017170;28;1089;-31
2022/02/27 05:14:50;;;;;;;;;;;;;;;14.51;58.38;102007.28;5017036;28;1906;-31
2022/02/27 05:17:17;;;;;;;;;;;;;;;14.52;58.79;102021.47;5016697;28;1151;-31
2022/02/27 05:19:43;;;;;;;;;;;;;;;14.53;58.28;102020.53;5016757;28;1087;-31
2022/02/27 05:22:10;;;;;;;;;;;;;;;14.59;58.68;102041.56;5016647;28;1087;-31
2022/02/27 05:24:36;;;;;;;;;;;;;;;14.53;58.49;102032.03;5016932;28;1071;-30
2022/02/27 05:27:03;;;;;;;;;;;;;;;14.55;59.57;102033.78;5016886;28;1058;-31
2022/02/27 05:29:31;;;;;;;;;;;;;;;14.53;58.42;102033.84;5016775;28;1055;-31
2022/02/27 05:31:59;;;;;;;;;;;;;;;14.55;58.55;102028.44;5016377;28;1096;-31
2022/02/27 05:34:25;;;;;;;;;;;;;;;14.53;59.69;102031.19;5016445;28;1075;-31
2022/02/27 05:36:53;;;;;;;;;;;;;;;14.56;58.31;102024.84;5016623;28;1969;-31
2022/02/27 05:39:20;;;;;;;;;;;;;;;14.58;59.20;102028.31;5016678;28;1110;-31
2022/02/27 05:41:46;;;;;;;;;;;;;;;14.56;58.30;102041.69;5016231;28;1080;-31
2022/02/27 05:44:13;;;;;;;;;;;;;;;14.54;58.95;102035.56;5016244;28;947;-31
2022/02/27 05:46:41;;;;;;;;;;;;;;;14.53;58.44;102042.69;5016502;28;1086;-31
2022/02/27 05:49:07;;;;;;;;;;;;;;;14.53;58.57;102041.81;5016001;28;1951;-31
2022/02/27 05:51:33;;;;;;;;;;;;;;;14.53;58.62;102049.81;5016429;28;1086;-31
2022/02/27 05:54:00;;;;;;;;;;;;;;;14.51;58.35;102057.00;5016498;28;1680;-31
2022/02/27 05:56:26;;;;;;;;;;;;;;;14.54;58.36;102051.53;5016267;28;1902;-33
2022/02/27 05:58:53;;;;;;;;;;;;;;;14.56;58.62;102049.69;5015989;28;1095;-33
2022/02/27 06:01:19;;;;;;;;;;;;;;;14.53;59.09;102040.03;5015744;28;1305;-34
2022/02/27 06:03:47;;;;;;;;;;;;;;;14.55;58.34;102034.63;5015761;28;1140;-33
2022/02/27 06:06:14;;;;;;;;;;;;;;;14.56;58.86;102041.69;5016009;28;1081;-33
2022/02/27 06:08:40;;;;;;;;;;;;;;;14.57;58.39;102038.09;5016091;28;1031;-33
2022/02/27 06:11:06;;;;;;;;;;;;;;;14.57;57.90;102024.81;5016290;28;1074;-33
2022/02/27 06:13:33;;;;;;;;;;;;;;;14.60;58.04;102037.94;5015986;28;1019;-33
2022/02/27 06:15:59;;;;;;;;;;;;;;;14.62;59.21;102030.78;5015901;28;1906;-33
2022/02/27 06:18:26;;;;;;;;;;;;;;;14.61;57.85;102039.69;5015862;28;1083;-33
2022/02/27 06:20:53;;;;;;;;;;;;;;;14.62;58.34;102033.44;5015929;28;1076;-33
2022/02/27 06:23:20;;;;;;;;;;;;;;;14.64;58.68;102043.97;5016269;28;2066;-33
2022/02/27 06:25:46;;;;;;;;;;;;;;;14.63;58.06;102048.47;5015773;28;1081;-33
2022/02/27 06:28:13;;;;;;;;;;;;;;;14.64;58.58;102039.53;5015737;28;1003;-34
2022/02/27 06:30:39;;;;;;;;;;;;;;;14.63;58.40;102043.13;5015610;28;1023;-33
2022/02/27 06:33:06;;;;;;;;;;;;;;;14.62;58.44;102041.41;5015333;28;1084;-33
2022/02/27 06:35:32;;;;;;;;;;;;;;;14.65;57.78;102057.22;5015523;28;1971;-33
2022/02/27 06:38:00;;;;;;;;;;;;;;;14.65;59.26;102065.22;5015532;28;1085;-33
2022/02/27 06:40:26;;;;;;;;;;;;;;;14.63;57.73;102068.91;5015544;28;1078;-33
2022/02/27 06:42:53;;;;;;;;;;;;;;;14.62;58.82;102057.41;5015418;28;1062;-33
2022/02/27 06:45:19;;;;;;;;;;;;;;;14.62;57.84;102059.16;5015402;28;1060;-33
2022/02/27 06:47:46;;;;;;;;;;;;;;;14.62;58.25;102062.72;5015394;28;1026;-33
2022/02/27 06:50:13;;;;;;;;;;;;;;;14.65;57.63;102070.53;5015367;28;1089;-33
2022/02/27 06:52:39;;;;;;;;;;;;;;;14.65;58.71;102056.38;5015244;28;1016;-34
2022/02/27 06:55:08;;;;;;;;;;;;;;;14.62;58.77;102062.72;5014878;28;1909;-33
2022/02/27 06:57:34;;;;;;;;;;;;;;;14.63;58.21;102050.25;5014893;28;1064;-34
2022/02/27 07:00:01;;;;;;;;;;;;;;;14.63;59.25;102055.59;5014785;28;1154;-34
2022/02/27 07:02:27;;;;;;;;;;;;;;;14.62;57.86;102049.41;5014593;28;1383;-34
2022/02/27 07:04:53;;;;;;;;;;;;;;;14.64;57.81;102039.53;5014981;28;1162;-33
2022/02/27 07:07:20;;;;;;;;;;;;;;;14.63;58.25;102053.78;5014711;28;1150;-34
2022/02/27 07:09:46;;;;;;;;;;;;;;;14.63;58.27;102053.78;5014694;28;1275;-33
2022/02/27 07:12:14;;;;;;;;;;;;;;;14.63;58.35;102045.78;5014638;28;1159;-33
2022/02/27 07:14:42;;;;;;;;;;;;;;;14.62;59.21;102045.84;5014592;28;1135;-33
2022/02/27 07:17:08;;;;;;;;;;;;;;;14.63;58.17;102059.09;5014691;28;1906;-33
2022/02/27 07:19:36;;;;;;;;;;;;;;;14.64;58.16;102054.63;5014520;28;1034;-33
2022/02/27 07:22:03;;;;;;;;;;;;;;;14.58;58.21;102053.13;5014802;28;1237;-33
2022/02/27 07:24:29;;;;;;;;;;;;;;;14.59;57.94;102044.22;5014735;28;1167;-33
2022/02/27 07:26:56;;;;;;;;;;;;;;;14.57;58.10;102048.75;5014692;28;1086;-33
2022/02/27 07:29:23;;;;;;;;;;;;;;;14.58;58.17;102045.13;5014573;28;1075;-33
2022/02/27 07:31:50;;;;;;;;;;;;;;;14.58;58.22;102039.81;5014205;28;1088;-34
2022/02/27 07:34:16;;;;;;;;;;;;;;;14.59;57.94;102038.03;5014262;28;1096;-33
2022/02/27 07:36:43;;;;;;;;;;;;;;;14.59;58.23;102049.53;5014434;28;1973;-33
2022/02/27 07:39:09;;;;;;;;;;;;;;;14.58;58.17;102034.50;5014726;28;1008;-33
2022/02/27 07:41:36;;;;;;;;;;;;;;;14.59;58.86;102030.06;5014371;28;1033;-33
2022/02/27 07:44:03;;;;;;;;;;;;;;;14.57;58.55;102018.63;5014494;28;1052;-33
2022/02/27 07:46:30;;;;;;;;;;;;;;;14.58;57.86;102023.84;5014077;28;1158;-33
2022/02/27 07:48:57;;;;;;;;;;;;;;;14.57;58.07;102010.63;5013986;28;1038;-33
2022/02/27 07:51:23;;;;;;;;;;;;;;;14.56;58.04;101995.56;5014026;28;1088;-33
2022/02/27 07:53:50;;;;;;;;;;;;;;;14.55;58.36;101994.69;5013894;28;1072;-33
2022/02/27 07:56:16;;;;;;;;;;;;;;;14.56;57.99;101993.78;5013851;28;1902;-33
2022/02/27 07:58:43;;;;;;;;;;;;;;;14.58;58.68;101986.56;5013877;28;1147;-33
2022/02/27 08:01:10;;;;;;;;;;;;;;;14.57;58.08;101994.66;5013824;28;1296;-33
2022/02/27 08:03:37;;;;;;;;;;;;;;;14.56;57.98;101999.09;5014035;28;1095;-33
2022/02/27 08:06:04;;;;;;;;;;;;;;;14.56;58.52;102001.75;5013921;28;1099;-33
2022/02/27 08:08:31;;;;;;;;;;;;;;;14.56;57.99;101980.47;5013732;28;1068;-33
2022/02/27 08:10:57;;;;;;;;;;;;;;;14.56;58.23;101983.13;5013575;28;1139;-33
2022/02/27 08:13:23;;;;;;;;;;;;;;;14.56;58.01;101996.44;5013471;28;1071;-33
2022/02/27 08:15:50;;;;;;;;;;;;;;;14.60;58.73;101987.38;5013625;28;1906;-33
2022/02/27 08:18:17;;;;;;;;;;;;;;;14.57;57.56;101984.88;5013785;28;1171;-33
2022/02/27 08:20:45;;;;;;;;;;;;;;;14.61;58.12;101990.91;5013885;28;1096;-33
2022/02/27 08:23:11;;;;;;;;;;;;;;;14.60;58.25;101979.38;5013888;28;1078;-33
2022/02/27 08:25:37;;;;;;;;;;;;;;;14.64;58.01;101980.97;5013950;28;1072;-33
2022/02/27 08:28:04;;;;;;;;;;;;;;;14.60;57.84;101983.84;5013877;28;1237;-33
2022/02/27 08:30:31;;;;;;;;;;;;;;;14.63;58.01;101979.22;5013989;28;1043;-33
2022/02/27 08:32:57;;;;;;;;;;;;;;;14.63;59.22;101965.94;5013811;28;1004;-33
2022/02/27 08:35:24;;;;;;;;;;;;;;;14.67;58.28;101970.16;5014549;28;1086;-33
2022/02/27 08:37:51;;;;;;;;;;;;;;;14.67;58.28;101964.81;5013469;28;1902;-33
2022/02/27 08:40:18;;;;;;;;;;;;;;;14.66;58.02;101951.59;5013782;28;1082;-33
2022/02/27 08:42:44;;;;;;;;;;;;;;;14.67;59.08;101938.22;5013695;28;1078;-33
2022/02/27 08:45:11;;;;;;;;;;;;;;;14.66;58.46;101940.94;5013738;28;1075;-33
2022/02/27 08:47:38;;;;;;;;;;;;;;;14.70;58.85;101934.50;5013428;28;1143;-33
2022/02/27 08:50:05;;;;;;;;;;;;;;;14.69;58.14;101952.31;5013694;28;1043;-33
2022/02/27 08:52:32;;;;;;;;;;;;;;;14.66;58.42;101947.16;5013672;28;1264;-33
2022/02/27 08:55:00;;;;;;;;;;;;;;;14.69;57.81;101954.09;5013844;28;1075;-33
2022/02/27 08:57:26;;;;;;;;;;;;;;;14.68;58.60;101960.34;5013533;28;1906;-33
2022/02/27 08:59:53;;;;;;;;;;;;;;;14.70;58.11;101942.50;5013585;28;1007;-33
2022/02/27 09:02:19;;;;;;;;;;;;;;;14.71;57.63;101966.41;5013247;28;1293;-33
2022/02/27 09:04:46;;;;;;;;;;;;;;;14.75;58.51;101951.13;5013567;28;1008;-33
2022/02/27 09:07:12;;;;;;;;;;;;;;;14.74;57.91;101969.84;5013571;28;1070;-33
2022/02/27 09:09:39;;;;;;;;;;;;;;;14.73;57.56;101963.66;5013525;28;1019;-33
2022/02/27 09:12:08;;;;;;;;;;;;;;;14.72;57.67;101969.91;5013487;28;1086;-33
2022/02/27 09:14:35;;;;;;;;;;;;;;;14.69;58.52;101965.63;5013193;28;1136;-33
2022/02/27 09:17:01;;;;;;;;;;;;;;;14.67;57.82;101959.50;5012994;28;1987;-33
2022/02/27 09:19:28;;;;;;;;;;;;;;;14.68;57.84;101968.34;5013394;28;1012;-33
2022/02/27 09:21:54;;;;;;;;;;;;;;;14.69;58.72;101970.94;5013415;28;1035;-33
2022/02/27 09:24:21;;;;;;;;;;;;;;;14.66;58.66;101955.13;5014955;28;1089;-33
2022/02/27 09:26:47;;;;;;;;;;;;;;;14.67;57.66;101970.16;5016939;28;1086;-33
2022/02/27 09:29:15;;;;;;;;;;;;;;;14.64;58.07;101957.00;5016800;28;1093;-33
2022/02/27 09:31:42;;;;;;;;;;;;;;;14.67;58.42;101963.97;5016810;28;1015;-33
2022/02/27 09:34:09;;;;;;;;;;;;;;;14.65;58.01;101956.06;5016673;28;1143;-33
2022/02/27 09:36:36;;;;;;;;;;;;;;;14.64;57.69;101949.03;5016683;28;1898;-33
2022/02/27 09:39:03;;;;;;;;;;;;;;;14.65;58.79;101949.88;5016384;28;1088;-33
2022/02/27 09:41:29;;;;;;;;;;;;;;;14.64;58.31;101948.16;5016731;28;1023;-33
2022/02/27 09:43:58;;;;;;;;;;;;;;;14.64;58.79;101948.16;5016623;28;1042;-33
2022/02/27 09:46:26;;;;;;;;;;;;;;;14.62;57.88;101945.59;5016239;28;1077;-34
2022/02/27 09:48:53;;;;;;;;;;;;;;;14.64;58.62;101946.38;5016574;28;1060;-33
2022/02/27 09:51:20;;;;;;;;;;;;;;;14.64;58.10;101933.06;5016461;28;1008;-33
2022/02/27 09:53:46;;;;;;;;;;;;;;;14.63;58.28;101915.34;5016456;28;1040;-33
2022/02/27 09:56:13;;;;;;;;;;;;;;;14.63;58.01;101935.78;5015978;28;1906;-33
2022/02/27 09:58:39;;;;;;;;;;;;;;;14.60;58.60;101920.81;5016019;28;1084;-33
2022/02/27 10:01:06;;;;;;;;;;;;;;;14.63;58.32;101927.81;5016200;28;1144;-33
2022/02/27 10:03:34;;;;;;;;;;;;;;;14.61;58.14;101930.53;5016120;28;1011;-33
2022/02/27 10:06:01;;;;;;;;;;;;;;;14.62;57.83;101934.94;5016007;28;1070;-33
2022/02/27 10:08:36;;;;;;;;;;;;;;;14.62;58.02;101945.59;5016170;28;1086;-33
2022/02/27 10:11:03;;;;;;;;;;;;;;;14.62;58.51;101940.25;5016121;28;1007;-33
2022/02/27 10:13:33;;;;;;;;;;;;;;;14.65;57.95;101942.75;5015755;28;1100;-33
2022/02/27 10:16:03;;;;;;;;;;;;;;;14.64;58.42;101940.16;5015989;28;996;-33
2022/02/27 10:18:37;;;;;;;;;;;;;;;14.61;58.23;101949.16;5015629;28;1159;-33
2022/02/27 10:21:03;;;;;;;;;;;;;;;14.59;57.87;101934.22;5015042;28;1765;-33
2022/02/27 10:23:30;;;;;;;;;;;;;;;14.62;58.79;101942.03;5015145;28;1858;-33
2022/02/27 10:25:56;;;;;;;;;;;;;;;14.57;58.10;101936.97;5015649;28;1083;-33
2022/02/27 10:28:23;;;;;;;;;;;;;;;14.56;58.50;101919.25;5008669;28;1505;-34
2022/02/27 10:30:51;;;;;;;;;;;;;;;14.58;57.25;101943.13;5012111;28;1480;-33
2022/02/27 10:33:17;;;;;;;;;;;;;;;14.59;58.03;101924.44;5015521;28;1046;-33
2022/02/27 10:35:46;;;;;;;;;;;;;;;14.66;58.03;101928.50;5015062;28;1051;-33
2022/02/27 10:38:15;;;;;;;;;;;;;;;14.71;58.54;101918.47;5015423;28;2048;-33
2022/02/27 10:40:44;;;;;;;;;;;;;;;14.73;58.78;101928.19;5015423;28;1093;-33
2022/02/27 10:43:11;;;;;;;;;;;;;;;14.70;58.83;101916.75;5013267;28;1514;-33
2022/02/27 10:45:38;;;;;;;;;;;;;;;14.64;58.00;101917.09;5005014;28;1629;-33
2022/02/27 10:48:05;;;;;;;;;;;;;;;14.60;59.15;101910.16;5014666;28;1079;-33
2022/02/27 10:50:32;;;;;;;;;;;;;;;14.61;57.77;101908.38;5015058;28;1199;-33
2022/02/27 10:53:00;;;;;;;;;;;;;;;14.60;58.43;101899.50;5015009;28;932;-33
2022/02/27 10:55:27;;;;;;;;;;;;;;;14.59;58.09;101911.13;5014980;28;1140;-33
2022/02/27 10:57:54;;;;;;;;;;;;;;;14.57;58.03;101891.69;5014824;28;1971;-33
2022/02/27 11:00:22;;;;;;;;;;;;;;;14.59;59.42;101895.16;5015186;28;1003;-33
2022/02/27 11:02:49;;;;;;;;;;;;;;;14.59;58.65;101900.47;5014609;28;1297;-33
2022/02/27 11:05:18;;;;;;;;;;;;;;;14.56;58.36;101892.63;5014990;28;1039;-33
2022/02/27 11:07:45;;;;;;;;;;;;;;;14.58;57.85;101885.41;5015014;28;1004;-33
2022/02/27 11:10:14;;;;;;;;;;;;;;;14.57;58.04;101883.72;5014960;28;1060;-33
2022/02/27 11:12:40;;;;;;;;;;;;;;;14.56;58.23;101881.09;5014627;28;1144;-33
2022/02/27 11:15:08;;;;;;;;;;;;;;;14.56;58.09;101871.34;5014593;28;1096;-33
2022/02/27 11:17:35;;;;;;;;;;;;;;;14.56;57.91;101867.78;5014421;28;1902;-33
2022/02/27 11:20:02;;;;;;;;;;;;;;;14.55;59.00;101864.28;5014465;28;1167;-33
2022/02/27 11:22:29;;;;;;;;;;;;;;;14.58;58.45;101869.44;5014771;28;1040;-33
2022/02/27 11:24:56;;;;;;;;;;;;;;;14.59;58.16;101879.19;5014418;28;956;-33
2022/02/27 11:27:27;;;;;;;;;;;;;;;14.53;58.96;101856.34;5014374;28;1093;-33
2022/02/27 11:29:54;;;;;;;;;;;;;;;14.59;58.67;101857.88;5014736;28;1000;-33
2022/02/27 11:32:20;;;;;;;;;;;;;;;14.55;59.32;101845.63;5014179;28;1084;-33
2022/02/27 11:34:47;;;;;;;;;;;;;;;14.54;58.74;101849.22;5014570;28;1047;-33
2022/02/27 11:37:13;;;;;;;;;;;;;;;14.52;58.14;101844.00;5014122;28;1977;-33
2022/02/27 11:42:47;;;;;;;;;;;;;;;14.51;58.13;101842.28;5014435;28;696;-33
2022/02/27 11:45:19;;;;;;;;;;;;;;;14.51;58.60;101830.78;4994517;28;2289;-33
2022/02/27 11:47:48;;;;;;;;;;;;;;;14.52;58.60;101832.47;5013648;28;1091;-33
2022/02/27 11:50:26;;;;;;;;;;;;;;;14.51;58.38;101825.44;5014270;28;1063;-33
2022/02/27 11:52:52;;;;;;;;;;;;;;;14.51;58.14;101826.31;5013961;28;1147;-33
2022/02/27 11:55:36;;;;;;;;;;;;;;;14.53;58.25;101826.22;5013854;28;1147;-33
2022/02/27 11:58:03;;;;;;;;;;;;;;;14.49;58.30;101806.03;5013687;28;1989;-33
2022/02/27 12:00:38;;;;;;;;;;;;;;;14.50;58.24;101810.41;5013866;28;1147;-33
2022/02/27 12:03:33;;;;;;;;;;;;;;;14.50;58.56;101799.75;5014004;28;1505;-33
2022/02/27 12:06:01;;;;;;;;;;;;;;;14.52;58.59;101812.06;5013686;28;1250;-33
2022/02/27 12:08:39;;;;;;;;;;;;;;;14.51;58.50;101804.16;5013707;28;1027;-33
2022/02/27 12:11:05;;;;;;;;;;;;;;;14.49;58.37;101795.41;5014320;28;1066;-33
2022/02/27 12:13:33;;;;;;;;;;;;;;;14.49;58.08;101796.25;5013987;28;1091;-33
2022/02/27 12:16:04;;;;;;;;;;;;;;;14.50;58.14;101802.41;5013961;28;1016;-33
2022/02/27 12:18:31;;;;;;;;;;;;;;;14.47;58.52;101799.94;5013819;28;1980;-33
2022/02/27 12:20:59;;;;;;;;;;;;;;;14.46;58.99;101792.88;5013650;28;1102;-33
2022/02/27 12:23:47;;;;;;;;;;;;;;;14.47;58.98;101790.16;5013932;28;1098;-33
2022/02/27 12:26:28;;;;;;;;;;;;;;;14.47;59.22;101774.19;5014212;28;1007;-33
2022/02/27 12:28:56;;;;;;;;;;;;;;;14.46;58.70;101769.81;5013475;28;2662;-33
2022/02/27 12:31:23;;;;;;;;;;;;;;;14.45;58.33;101757.44;5013500;28;1143;-33
2022/02/27 12:33:50;;;;;;;;;;;;;;;14.44;58.62;101761.06;5013552;28;1162;-33
2022/02/27 12:36:21;;;;;;;;;;;;;;;14.47;59.53;101765.34;5013534;28;1080;-33
2022/02/27 12:38:48;;;;;;;;;;;;;;;14.45;57.89;101767.22;5013628;28;1906;-33
2022/02/27 12:41:17;;;;;;;;;;;;;;;14.47;58.33;101765.34;5013684;28;1016;-33
2022/02/27 12:43:44;;;;;;;;;;;;;;;14.48;58.45;101769.72;5013471;28;1060;-33
2022/02/27 12:46:12;;;;;;;;;;;;;;;14.48;58.13;101767.94;5013708;28;952;-33
2022/02/27 12:51:28;;;;;;;;;;;;;;;14.47;58.18;101760.03;5013605;28;674;-33
2022/02/27 12:53:57;;;;;;;;;;;;;;;14.49;58.98;101758.13;5013589;28;1076;-33
2022/02/27 12:56:23;;;;;;;;;;;;;;;14.48;58.64;101745.75;5013366;28;1080;-33